Oriskany, NY

5:55 AM EST on January 31, 2015 (GMT -0500)
State Preparedness Training Center | Change Station
CLOSE
Current Station
Personal Weather Station
Location: Oriskany, NY
Elevation: 718 ft
Nearby Weather Stations

Elev 718 ft 43.15 °N, 75.38 °W | Updated 12 seconds ago

Partly Cloudy
Partly Cloudy
-3.5 °F
Feels Like -17 °F
N
6.9
Wind Variable Wind from West
Gusts 6.9 mph

Today
High -- | Low -- °F
--% Chance of Precip.
Yesterday
High -- | Low -- °F
Precip. -- in
7:18 AM 5:12 PM
Waxing Gibbous, 89% visible
Pressure 30.32 in
Visibility 10.0 miles
Clouds Clear
Windchill -17 °F
Dew Point -9 °F
Humidity 76%
Rainfall 0.00 in
Snow Depth Not available.
UV 0 out of 12
Pollen .10 out of 12
Air Quality Not available.
Flu Activity Not available.
METAR KRME 310953Z AUTO 32005KT 10SM CLR M21/M24 A3029 RMK AO2 SLP266 T12111244

More Conditions Fewer Conditions

Pressure 30.32 in
Visibility 10.0 miles
Clouds Clear
Windchill -17 °F
Dew Point -9 °F
Humidity 76%
Rainfall 0.00 in
Snow Depth Not available.
UV 0 out of 12
Pollen .10 out of 12
Air Quality Not available.
Flu Activity Not available.
METAR KRME 310953Z AUTO 32005KT 10SM CLR M21/M24 A3029 RMK AO2 SLP266 T12111244

More Conditions Fewer Conditions

10-Day Weather Forecast

Almanac

Astronomy

Jan. 31, 2015 Rise Set
Actual Time
Civil Twilight
Nautical Twilight
Astronomical Twilight
Moon
Length of Visible Light
Length of Day
Tomorrow will be .
, % of the Moon is Illuminated

Today's Extremes

State Highs State Lows

Community

WunderPhotos

Upload Photos

1,792,031 photos uploaded!

WunderBlogs® & News

Nearby

Air Quality

  Air Quality AQ Index Pollutant
Not available.

Snow Depth

Station Depth Elevation

Earthquake Activity

City Distance Mag. Time & Date
Minimum magnitude displayed is 2.5.

Coastal Water Temperatures

Place Temperature

Nearby Weather Stations